Time;durP1;ratioP1;P1;durP2;ratioP2;P2;SDS_P1;SDS_P2;PMS_P1;PMS_P2;Temp;Humidity;BMP_temperature;BMP_pressure;BME280_temperature;BME280_humidity;BME280_pressure;Samples;Min_cycle;Max_cycle;Signal;HPM_P1;HPM_P2
2021/09/06 00:01:01;;;;;;;3.63;2.65;;;23.70;86.90;;;;;;4963669;28;20047;-72
2021/09/06 00:03:31;;;;;;;3.08;2.60;;;23.70;86.70;;;;;;4955998;28;20532;-72
2021/09/06 00:06:00;;;;;;;2.95;2.50;;;23.60;86.90;;;;;;4960940;28;20047;-72
2021/09/06 00:08:28;;;;;;;3.03;2.63;;;23.60;86.90;;;;;;4961706;28;20047;-72
2021/09/06 00:11:04;;;;;;;4.28;3.25;;;23.70;86.90;;;;;;4962152;28;20288;-72
2021/09/06 00:13:32;;;;;;;3.37;2.73;;;23.60;86.80;;;;;;4961262;28;20054;-72
2021/09/06 00:16:01;;;;;;;2.88;2.58;;;23.50;86.70;;;;;;4965369;28;20366;-72
2021/09/06 00:18:31;;;;;;;4.60;2.60;;;23.50;86.50;;;;;;4962964;28;20038;-72
2021/09/06 00:21:02;;;;;;;3.42;2.75;;;23.50;86.10;;;;;;4962197;28;20039;-72
2021/09/06 00:23:30;;;;;;;3.20;2.60;;;23.50;86.00;;;;;;4960366;28;20050;-72
2021/09/06 00:25:59;;;;;;;3.70;2.58;;;23.50;85.70;;;;;;4960295;28;20057;-72
2021/09/06 00:28:27;;;;;;;3.35;2.72;;;23.50;85.60;;;;;;4964880;28;20189;-72
2021/09/06 00:30:55;;;;;;;3.20;2.53;;;23.40;85.50;;;;;;4952425;28;20043;-72
2021/09/06 00:33:24;;;;;;;3.78;2.53;;;23.40;85.40;;;;;;4957447;28;20231;-72
2021/09/06 00:35:54;;;;;;;3.17;2.53;;;23.30;85.60;;;;;;4960131;28;20043;-72
2021/09/06 00:38:23;;;;;;;2.70;2.42;;;23.30;85.50;;;;;;4961028;28;20129;-72
2021/09/06 00:40:51;;;;;;;3.08;2.58;;;23.30;86.10;;;;;;4960531;28;20517;-72
2021/09/06 00:43:20;;;;;;;3.85;2.38;;;23.30;86.00;;;;;;4957548;28;20051;-73
2021/09/06 00:45:49;;;;;;;3.83;2.35;;;23.30;86.00;;;;;;4971808;28;20051;-72
2021/09/06 00:48:18;;;;;;;3.75;2.53;;;23.30;86.10;;;;;;4960476;28;20129;-72
2021/09/06 00:50:47;;;;;;;3.30;2.95;;;23.30;86.10;;;;;;4960881;28;20161;-72
2021/09/06 00:53:17;;;;;;;2.72;2.53;;;23.20;86.50;;;;;;4964262;28;20432;-72
2021/09/06 00:55:46;;;;;;;3.03;2.72;;;23.10;86.70;;;;;;4961085;28;20138;-72
2021/09/06 00:58:16;;;;;;;3.97;2.67;;;23.00;87.00;;;;;;4962707;28;20039;-72
2021/09/06 01:00:45;;;;;;;6.63;2.70;;;23.00;86.90;;;;;;4955819;28;20090;-72
2021/09/06 01:03:17;;;;;;;2.90;2.47;;;23.10;86.80;;;;;;4964181;28;20039;-72
2021/09/06 01:05:46;;;;;;;3.65;3.03;;;22.90;87.00;;;;;;4944687;28;20521;-72
2021/09/06 01:08:36;;;;;;;3.47;2.70;;;23.00;87.00;;;;;;4967035;28;20059;-72
2021/09/06 01:11:40;;;;;;;2.70;2.50;;;23.10;87.10;;;;;;4998107;28;20046;-72
2021/09/06 01:14:23;;;;;;;2.95;2.47;;;23.10;86.70;;;;;;4945554;28;20098;-72
2021/09/06 01:16:52;;;;;;;2.92;2.63;;;23.00;86.60;;;;;;4965570;28;20075;-72
2021/09/06 01:19:22;;;;;;;4.40;2.85;;;23.00;87.00;;;;;;4963771;28;20509;-72
2021/09/06 01:21:54;;;;;;;3.08;2.70;;;23.00;87.60;;;;;;4963988;28;20051;-72
2021/09/06 01:24:42;;;;;;;3.03;2.40;;;22.80;88.30;;;;;;4967918;28;20046;-72
2021/09/06 01:27:20;;;;;;;3.47;2.80;;;22.60;89.00;;;;;;4967158;28;20062;-72
2021/09/06 01:29:48;;;;;;;3.67;2.63;;;22.60;89.20;;;;;;4962843;28;20077;-72
2021/09/06 01:32:20;;;;;;;4.82;2.30;;;22.70;89.30;;;;;;4961732;28;20050;-73
2021/09/06 01:34:49;;;;;;;2.55;2.35;;;22.60;89.60;;;;;;4962225;28;20047;-72
2021/09/06 01:37:18;;;;;;;4.57;2.90;;;22.60;89.60;;;;;;4960188;28;20058;-72
2021/09/06 01:39:52;;;;;;;4.32;2.90;;;22.60;89.50;;;;;;4963530;28;20513;-72
2021/09/06 01:42:24;;;;;;;4.80;2.80;;;22.60;90.00;;;;;;4970239;28;20034;-72
2021/09/06 01:44:56;;;;;;;2.95;2.67;;;22.50;89.70;;;;;;4963013;28;20062;-73
2021/09/06 01:47:29;;;;;;;3.95;3.10;;;22.50;89.90;;;;;;4961846;28;20043;-72
2021/09/06 01:49:58;;;;;;;3.65;3.13;;;22.50;90.30;;;;;;4965441;28;20147;-72
2021/09/06 01:52:31;;;;;;;3.58;2.92;;;22.40;90.40;;;;;;4962195;28;20044;-73
2021/09/06 01:55:03;;;;;;;5.07;2.50;;;22.50;90.00;;;;;;4965402;28;20469;-72
2021/09/06 01:57:38;;;;;;;3.58;2.60;;;22.60;89.80;;;;;;4961237;28;20043;-72
2021/09/06 02:00:09;;;;;;;3.20;2.72;;;22.50;89.90;;;;;;4954441;28;20293;-72
2021/09/06 02:03:04;;;;;;;2.83;2.45;;;22.50;90.20;;;;;;4965507;28;20497;-72
2021/09/06 02:05:54;;;;;;;3.83;2.85;;;22.50;90.10;;;;;;4994205;28;20046;-71
2021/09/06 02:08:38;;;;;;;4.32;2.33;;;22.40;90.30;;;;;;4964947;28;20118;-72
2021/09/06 02:11:07;;;;;;;3.03;2.78;;;22.30;90.30;;;;;;4967762;28;20042;-72
2021/09/06 02:13:39;;;;;;;3.30;2.65;;;22.40;90.20;;;;;;4963972;28;20532;-72
2021/09/06 02:16:09;;;;;;;4.25;3.08;;;22.40;90.00;;;;;;4974788;28;20066;-72
2021/09/06 02:18:40;;;;;;;3.30;2.95;;;22.30;90.40;;;;;;4963910;28;20051;-72
2021/09/06 02:21:09;;;;;;;2.88;2.65;;;22.10;90.50;;;;;;4965887;28;20384;-72
2021/09/06 02:23:37;;;;;;;3.20;2.90;;;22.10;90.70;;;;;;4962675;28;20556;-72
2021/09/06 02:26:05;;;;;;;3.88;2.83;;;22.10;90.50;;;;;;4955691;28;20053;-72
2021/09/06 02:28:36;;;;;;;3.25;2.95;;;22.00;90.50;;;;;;5001970;28;20081;-72
2021/09/06 02:31:09;;;;;;;6.75;2.90;;;21.90;90.90;;;;;;4954423;28;20046;-72
2021/09/06 02:34:11;;;;;;;4.30;2.60;;;21.80;91.30;;;;;;4950880;28;20058;-72
2021/09/06 02:36:41;;;;;;;3.33;2.80;;;21.70;92.10;;;;;;4944511;28;20051;-72
2021/09/06 02:39:10;;;;;;;4.85;2.50;;;21.70;92.20;;;;;;4961222;28;20061;-72
2021/09/06 02:41:38;;;;;;;3.45;2.75;;;21.60;92.10;;;;;;4945268;28;20134;-72
2021/09/06 02:44:07;;;;;;;7.20;3.20;;;21.60;92.30;;;;;;4956212;28;20106;-72
2021/09/06 02:46:36;;;;;;;3.25;2.95;;;21.50;92.30;;;;;;4963181;28;20564;-72
2021/09/06 02:49:05;;;;;;;4.03;3.10;;;21.50;92.30;;;;;;4964009;28;20108;-72
2021/09/06 02:51:34;;;;;;;4.57;3.08;;;21.50;92.50;;;;;;4962903;28;20173;-72
2021/09/06 02:54:02;;;;;;;3.55;3.20;;;21.50;92.10;;;;;;4947275;28;20451;-72
2021/09/06 02:56:30;;;;;;;3.50;3.20;;;21.40;92.30;;;;;;4963560;28;20453;-73
2021/09/06 02:58:59;;;;;;;3.80;2.60;;;21.30;92.60;;;;;;4966833;28;20050;-72
2021/09/06 03:01:27;;;;;;;4.43;3.15;;;21.20;92.70;;;;;;4960996;28;20061;-72
2021/09/06 03:03:57;;;;;;;2.92;2.63;;;21.00;93.10;;;;;;4957416;28;20469;-72
2021/09/06 03:06:25;;;;;;;3.53;2.70;;;20.90;93.70;;;;;;4962798;28;20055;-73
2021/09/06 03:08:53;;;;;;;3.40;2.88;;;20.90;93.60;;;;;;4956604;28;20038;-72
2021/09/06 03:11:26;;;;;;;3.75;3.05;;;20.80;93.80;;;;;;4961316;28;20560;-72
2021/09/06 03:13:56;;;;;;;3.97;2.53;;;20.90;93.80;;;;;;4962685;28;20141;-72
2021/09/06 03:16:25;;;;;;;4.80;3.42;;;20.90;93.70;;;;;;4960908;28;20067;-72
2021/09/06 03:19:00;;;;;;;3.50;3.05;;;20.90;93.70;;;;;;4978676;28;20054;-72
2021/09/06 03:21:38;;;;;;;3.67;3.17;;;21.00;93.70;;;;;;4957059;28;20062;-72
2021/09/06 03:24:09;;;;;;;3.10;2.80;;;20.80;93.80;;;;;;4961581;28;20042;-72
2021/09/06 03:26:37;;;;;;;3.72;3.17;;;20.70;94.10;;;;;;4959467;28;20113;-72
2021/09/06 03:29:05;;;;;;;2.75;2.55;;;20.60;94.80;;;;;;4957553;28;20039;-72
2021/09/06 03:31:34;;;;;;;5.28;3.03;;;20.80;94.30;;;;;;4964103;28;20371;-72
2021/09/06 03:34:05;;;;;;;4.75;3.40;;;20.80;94.20;;;;;;4957218;28;20244;-73
2021/09/06 03:36:33;;;;;;;4.82;2.83;;;20.60;94.40;;;;;;4962888;28;20054;-72
2021/09/06 03:39:02;;;;;;;3.67;2.70;;;20.70;94.10;;;;;;4957193;28;20421;-73
2021/09/06 03:41:34;;;;;;;3.25;2.95;;;20.70;94.20;;;;;;4964712;28;20066;-73
2021/09/06 03:44:02;;;;;;;3.15;2.80;;;20.60;94.10;;;;;;4957401;28;20050;-72
2021/09/06 03:46:31;;;;;;;5.78;3.03;;;20.50;94.50;;;;;;4976100;28;20541;-72
2021/09/06 03:49:02;;;;;;;3.33;2.75;;;20.40;94.80;;;;;;4967166;28;20501;-73
2021/09/06 03:51:32;;;;;;;3.75;2.97;;;20.40;94.90;;;;;;4957521;28;20090;-72
2021/09/06 03:54:02;;;;;;;4.68;2.97;;;20.40;94.90;;;;;;4961496;28;20035;-72
2021/09/06 03:56:33;;;;;;;3.85;3.35;;;20.30;95.00;;;;;;4962651;28;20402;-72
2021/09/06 03:59:02;;;;;;;8.25;3.50;;;20.30;95.10;;;;;;4969768;28;20331;-72
2021/09/06 04:01:31;;;;;;;4.53;3.20;;;20.30;95.40;;;;;;4960654;28;20098;-72
2021/09/06 04:04:00;;;;;;;6.10;4.05;;;20.30;95.50;;;;;;4958512;28;20057;-72
2021/09/06 04:06:28;;;;;;;3.42;3.03;;;20.30;95.50;;;;;;4957913;28;20047;-72
2021/09/06 04:08:58;;;;;;;11.10;3.60;;;20.40;95.50;;;;;;4964079;28;20074;-72
2021/09/06 04:11:27;;;;;;;3.83;2.97;;;20.50;95.20;;;;;;4956721;28;20066;-72
2021/09/06 04:14:15;;;;;;;3.40;3.10;;;20.50;95.00;;;;;;4961185;28;20150;-72
2021/09/06 04:16:47;;;;;;;3.65;3.28;;;20.40;95.10;;;;;;4961403;28;20510;-72
2021/09/06 04:19:17;;;;;;;3.28;2.95;;;20.40;95.30;;;;;;4961575;28;20038;-72
2021/09/06 04:21:47;;;;;;;3.15;2.85;;;20.40;94.90;;;;;;4960247;28;20048;-72
2021/09/06 04:24:17;;;;;;;3.70;3.00;;;20.30;94.80;;;;;;4962989;28;20150;-72
2021/09/06 04:26:45;;;;;;;3.92;3.10;;;20.20;95.00;;;;;;4958710;28;20149;-72
2021/09/06 04:29:14;;;;;;;3.95;3.30;;;20.20;95.10;;;;;;4960466;28;20173;-72
2021/09/06 04:31:43;;;;;;;3.50;3.17;;;20.20;95.10;;;;;;4960870;28;20137;-72
2021/09/06 04:34:12;;;;;;;3.75;2.70;;;20.20;95.30;;;;;;4961112;28;20046;-72
2021/09/06 04:36:41;;;;;;;4.15;3.30;;;19.90;96.20;;;;;;4970761;28;20548;-72
2021/09/06 04:39:09;;;;;;;3.65;3.20;;;20.00;96.30;;;;;;4993436;28;20532;-72
2021/09/06 04:41:39;;;;;;;3.92;3.45;;;20.00;96.40;;;;;;4958159;28;20058;-72
2021/09/06 04:44:07;;;;;;;4.28;3.10;;;20.00;96.30;;;;;;4965831;28;20038;-72
2021/09/06 04:46:37;;;;;;;3.72;3.03;;;19.90;96.50;;;;;;4956705;28;20047;-72
2021/09/06 04:49:06;;;;;;;5.20;3.70;;;19.80;96.70;;;;;;4957029;28;20051;-72
2021/09/06 04:51:34;;;;;;;3.97;3.15;;;19.90;96.70;;;;;;4957333;28;20043;-72
2021/09/06 04:54:05;;;;;;;4.43;2.72;;;20.00;96.70;;;;;;4955925;28;20130;-72
2021/09/06 04:56:35;;;;;;;4.15;3.40;;;20.10;96.70;;;;;;4958607;28;20051;-72
2021/09/06 04:59:08;;;;;;;4.07;3.28;;;20.00;96.70;;;;;;4983342;28;20047;-72
2021/09/06 05:01:41;;;;;;;5.22;2.80;;;19.90;96.70;;;;;;4963749;28;20043;-72
2021/09/06 05:04:10;;;;;;;4.50;2.90;;;19.90;96.70;;;;;;4944800;28;20409;-72
2021/09/06 05:06:38;;;;;;;4.00;3.35;;;20.00;96.70;;;;;;4948569;28;20512;-72
2021/09/06 05:09:07;;;;;;;4.25;3.15;;;19.90;96.70;;;;;;4961343;28;20047;-72
2021/09/06 05:11:35;;;;;;;4.85;3.50;;;19.90;96.70;;;;;;4961147;28;20485;-72
2021/09/06 05:14:04;;;;;;;6.90;3.35;;;19.80;96.70;;;;;;4962955;28;21730;-72
2021/09/06 05:16:33;;;;;;;6.20;3.92;;;19.80;96.70;;;;;;4967478;28;20486;-72
2021/09/06 05:19:02;;;;;;;5.28;3.45;;;19.70;96.70;;;;;;4954250;28;20042;-72
2021/09/06 05:21:32;;;;;;;5.70;3.63;;;19.70;96.70;;;;;;4961128;28;20051;-72
2021/09/06 05:24:03;;;;;;;3.35;3.05;;;19.60;96.70;;;;;;4954794;28;20770;-72
2021/09/06 05:26:31;;;;;;;4.90;3.33;;;19.80;96.70;;;;;;4960913;28;20421;-72
2021/09/06 05:28:59;;;;;;;5.13;3.50;;;19.80;96.70;;;;;;4958835;28;20049;-72
2021/09/06 05:31:29;;;;;;;4.55;3.22;;;19.70;96.70;;;;;;4959705;28;20059;-72
2021/09/06 05:34:01;;;;;;;5.60;3.75;;;19.80;96.70;;;;;;4943158;28;20722;-72
2021/09/06 05:36:29;;;;;;;6.15;3.05;;;19.80;96.70;;;;;;4962825;28;20053;-72
2021/09/06 05:38:59;;;;;;;3.92;3.47;;;20.00;96.70;;;;;;4961650;28;20051;-72
2021/09/06 05:41:44;;;;;;;4.13;3.20;;;20.10;96.70;;;;;;4958039;28;20126;-72
2021/09/06 05:44:16;;;;;;;5.75;3.63;;;20.30;96.70;;;;;;4961065;28;20043;-72
2021/09/06 05:46:47;;;;;;;5.45;3.00;;;20.10;96.70;;;;;;4964513;28;20044;-72
2021/09/06 05:49:17;;;;;;;4.78;3.45;;;20.10;96.70;;;;;;4961226;28;20170;-72
2021/09/06 05:51:49;;;;;;;6.10;3.47;;;20.00;96.70;;;;;;4960334;28;20057;-72
2021/09/06 05:54:19;;;;;;;4.95;3.30;;;20.20;96.70;;;;;;4958907;28;20536;-73
2021/09/06 05:56:48;;;;;;;6.93;3.55;;;20.30;96.70;;;;;;4959410;28;20425;-72
2021/09/06 05:59:23;;;;;;;7.25;3.70;;;20.40;96.70;;;;;;4962521;28;20055;-72
2021/09/06 06:01:51;;;;;;;10.80;3.72;;;20.60;96.70;;;;;;4966180;28;20513;-72
2021/09/06 06:04:21;;;;;;;5.63;3.40;;;20.60;96.70;;;;;;4949247;28;20045;-72
2021/09/06 06:06:54;;;;;;;6.60;3.50;;;20.70;96.70;;;;;;4966003;28;20388;-72
2021/09/06 06:09:23;;;;;;;7.63;4.40;;;20.80;96.70;;;;;;4955946;28;20055;-72
2021/09/06 06:11:52;;;;;;;4.20;3.15;;;21.00;96.70;;;;;;4960196;28;20106;-72
2021/09/06 06:14:24;;;;;;;4.57;3.50;;;21.00;96.70;;;;;;4976839;28;20133;-72
2021/09/06 06:16:55;;;;;;;5.30;3.50;;;21.10;96.70;;;;;;4961542;28;20150;-72
2021/09/06 06:19:31;;;;;;;5.85;3.58;;;21.10;96.70;;;;;;4956779;28;20150;-72
2021/09/06 06:22:18;;;;;;;6.05;3.47;;;21.10;96.70;;;;;;4960700;28;20049;-72
2021/09/06 06:24:56;;;;;;;5.63;3.75;;;21.10;96.70;;;;;;4957096;28;20035;-72
2021/09/06 06:27:32;;;;;;;5.30;3.90;;;21.20;96.70;;;;;;4955881;28;20053;-72
2021/09/06 06:30:01;;;;;;;4.90;3.45;;;21.20;96.70;;;;;;4963417;28;20109;-72
2021/09/06 06:32:30;;;;;;;5.05;3.80;;;21.20;96.70;;;;;;4979010;28;20043;-73
2021/09/06 06:35:11;;;;;;;4.85;3.67;;;21.20;96.70;;;;;;4965206;28;20058;-72
2021/09/06 06:37:40;;;;;;;5.93;3.92;;;21.20;96.70;;;;;;4967069;28;20203;-72
2021/09/06 06:40:10;;;;;;;5.90;4.07;;;21.20;96.70;;;;;;4965163;28;20141;-72
2021/09/06 06:42:40;;;;;;;4.53;3.40;;;21.30;96.70;;;;;;4961478;28;20043;-72
2021/09/06 06:45:13;;;;;;;6.75;3.55;;;21.40;96.70;;;;;;4958339;28;20079;-72
2021/09/06 06:47:44;;;;;;;8.30;3.95;;;21.30;96.70;;;;;;4966348;28;20059;-72
2021/09/06 06:50:14;;;;;;;9.98;4.35;;;21.30;96.70;;;;;;4960077;28;20098;-72
2021/09/06 06:52:43;;;;;;;8.95;4.03;;;21.30;96.70;;;;;;4961548;28;20615;-72
2021/09/06 06:55:12;;;;;;;5.80;3.88;;;21.40;96.70;;;;;;4960027;28;20441;-72
2021/09/06 06:57:40;;;;;;;5.55;3.70;;;21.30;96.70;;;;;;4965282;28;20050;-72
2021/09/06 07:00:10;;;;;;;6.88;4.38;;;21.30;96.70;;;;;;4960017;28;20369;-72
2021/09/06 07:02:42;;;;;;;7.25;3.90;;;21.30;96.70;;;;;;4982967;28;20520;-72
2021/09/06 07:05:11;;;;;;;7.07;3.90;;;21.40;96.70;;;;;;4960374;28;20639;-72
2021/09/06 07:07:46;;;;;;;5.53;3.75;;;21.60;96.70;;;;;;4961952;28;20505;-72
2021/09/06 07:10:18;;;;;;;6.70;4.20;;;21.70;96.30;;;;;;4960064;28;20039;-72
2021/09/06 07:12:47;;;;;;;8.38;4.53;;;21.80;96.60;;;;;;4965842;28;20046;-73
2021/09/06 07:15:16;;;;;;;5.50;3.70;;;22.00;95.90;;;;;;4945916;28;20039;-72
2021/09/06 07:17:44;;;;;;;5.32;3.60;;;22.00;95.50;;;;;;4960431;28;20050;-72
2021/09/06 07:20:13;;;;;;;7.05;3.78;;;22.10;95.80;;;;;;4961445;28;20051;-72
2021/09/06 07:22:43;;;;;;;5.55;3.60;;;22.20;95.80;;;;;;4962820;28;20133;-72
2021/09/06 07:25:13;;;;;;;4.68;3.42;;;22.40;95.50;;;;;;4967262;28;20039;-72
2021/09/06 07:27:44;;;;;;;4.15;3.28;;;22.50;95.10;;;;;;4968616;28;20329;-72
2021/09/06 07:30:13;;;;;;;12.55;4.18;;;22.60;95.20;;;;;;4961582;28;20041;-72
2021/09/06 07:32:41;;;;;;;10.93;3.85;;;22.60;95.60;;;;;;4961017;28;20426;-72
2021/09/06 07:35:11;;;;;;;9.27;4.05;;;22.70;95.20;;;;;;4959378;28;20043;-73
2021/09/06 07:37:41;;;;;;;9.25;3.88;;;22.70;95.20;;;;;;4962233;28;20149;-73
2021/09/06 07:40:12;;;;;;;5.15;3.55;;;22.80;94.50;;;;;;4968222;28;20046;-72
2021/09/06 07:42:47;;;;;;;6.63;3.65;;;22.90;94.50;;;;;;4964787;28;20058;-72
2021/09/06 07:45:17;;;;;;;4.72;3.30;;;23.10;94.60;;;;;;4963711;28;20578;-72
2021/09/06 07:47:45;;;;;;;4.18;3.15;;;23.20;94.40;;;;;;4976005;28;20088;-73
2021/09/06 07:50:20;;;;;;;5.03;2.65;;;23.30;93.10;;;;;;4957415;28;20411;-73
2021/09/06 07:52:48;;;;;;;3.63;2.95;;;23.50;91.10;;;;;;4973360;28;20149;-73
2021/09/06 07:55:18;;;;;;;2.97;2.55;;;23.70;89.90;;;;;;4956440;28;20051;-72
2021/09/06 07:57:47;;;;;;;3.35;2.65;;;23.90;88.70;;;;;;4960147;28;20054;-72
2021/09/06 08:00:16;;;;;;;3.13;2.67;;;24.00;88.80;;;;;;4957416;28;20050;-72
2021/09/06 08:02:49;;;;;;;6.15;2.60;;;24.20;88.20;;;;;;4958323;28;20043;-72
2021/09/06 08:05:24;;;;;;;2.97;2.40;;;24.30;88.00;;;;;;4945168;28;20410;-73
2021/09/06 08:07:58;;;;;;;3.53;2.38;;;24.40;87.80;;;;;;4961649;28;20062;-72
2021/09/06 08:10:29;;;;;;;4.63;3.00;;;24.40;87.40;;;;;;4963089;28;20458;-72
2021/09/06 08:12:58;;;;;;;3.38;2.85;;;24.50;87.50;;;;;;4958995;28;20049;-72
2021/09/06 08:15:29;;;;;;;2.80;2.45;;;24.60;87.40;;;;;;4946694;28;20067;-72
2021/09/06 08:18:01;;;;;;;3.13;2.83;;;24.60;87.10;;;;;;4970499;28;20482;-73
2021/09/06 08:20:29;;;;;;;4.40;2.60;;;24.70;86.30;;;;;;4965106;28;20105;-72
2021/09/06 08:22:59;;;;;;;4.93;2.97;;;24.80;86.20;;;;;;4947882;28;20402;-72
2021/09/06 08:25:30;;;;;;;3.28;2.65;;;24.90;85.20;;;;;;4961534;28;20142;-72
2021/09/06 08:27:58;;;;;;;5.45;2.75;;;25.00;85.60;;;;;;4944472;28;20053;-72
2021/09/06 08:30:26;;;;;;;3.47;2.78;;;25.10;85.20;;;;;;4974844;28;20047;-72
2021/09/06 08:32:55;;;;;;;4.35;2.63;;;25.20;83.90;;;;;;4962823;28;20513;-72
2021/09/06 08:35:24;;;;;;;3.17;2.60;;;25.20;84.00;;;;;;4941510;28;20433;-72
2021/09/06 08:37:52;;;;;;;3.85;3.08;;;25.30;83.60;;;;;;4965380;28;20054;-72
2021/09/06 08:40:20;;;;;;;3.70;2.65;;;25.40;83.60;;;;;;4961801;28;20055;-72
2021/09/06 08:42:51;;;;;;;2.95;2.20;;;25.50;82.60;;;;;;4960472;28;20047;-72
2021/09/06 08:45:19;;;;;;;3.58;2.65;;;25.60;82.60;;;;;;4977604;28;20038;-72
2021/09/06 08:47:51;;;;;;;3.33;2.53;;;25.60;81.40;;;;;;4959682;28;20101;-72
2021/09/06 08:50:21;;;;;;;4.55;2.17;;;25.70;81.50;;;;;;4961506;28;20069;-72
2021/09/06 08:52:50;;;;;;;4.82;2.45;;;25.70;81.10;;;;;;4958494;28;20074;-73
2021/09/06 08:55:18;;;;;;;4.65;2.70;;;25.80;80.40;;;;;;4959722;28;20509;-73
2021/09/06 08:57:52;;;;;;;3.75;2.30;;;25.90;79.80;;;;;;4955435;28;20047;-72
2021/09/06 09:00:26;;;;;;;4.32;2.80;;;26.00;79.90;;;;;;4942662;28;20500;-72
2021/09/06 09:03:30;;;;;;;2.90;2.42;;;26.10;79.50;;;;;;4923945;29;20123;-73
2021/09/06 09:06:19;;;;;;;2.95;2.50;;;26.00;78.90;;;;;;4918209;29;20466;-73
2021/09/06 09:09:07;;;;;;;2.42;2.03;;;26.10;78.60;;;;;;4925483;29;20188;-72
2021/09/06 09:12:09;;;;;;;2.50;2.30;;;26.10;78.80;;;;;;4918843;29;20474;-73
2021/09/06 09:14:54;;;;;;;2.90;2.42;;;26.20;79.00;;;;;;4920173;29;20127;-73
2021/09/06 09:17:34;;;;;;;3.00;2.30;;;26.30;78.50;;;;;;4920176;29;20058;-72
2021/09/06 09:20:17;;;;;;;3.47;2.10;;;26.30;77.80;;;;;;4908019;29;20553;-73
2021/09/06 09:23:03;;;;;;;3.28;2.38;;;26.30;77.50;;;;;;4907029;29;20159;-72
2021/09/06 09:26:00;;;;;;;2.92;2.63;;;26.40;77.00;;;;;;4919581;29;20549;-72
2021/09/06 09:28:54;;;;;;;3.55;2.47;;;26.50;76.00;;;;;;4923347;29;20054;-72
2021/09/06 09:31:46;;;;;;;;;;;26.50;75.50;;;;;;4925793;29;20670;-73
2021/09/06 09:34:44;;;;;;;2.72;2.22;;;26.70;76.00;;;;;;4860067;29;20122;-73
2021/09/06 09:37:25;;;;;;;2.30;2.05;;;26.80;75.40;;;;;;4927032;28;20507;-73
2021/09/06 09:39:55;;;;;;;3.33;2.53;;;26.90;75.50;;;;;;4977234;28;20590;-73
2021/09/06 09:42:24;;;;;;;2.53;2.05;;;27.00;76.00;;;;;;4964748;28;20050;-73
2021/09/06 09:44:54;;;;;;;2.60;2.10;;;27.20;75.20;;;;;;4962391;28;20051;-73
2021/09/06 09:47:51;;;;;;;4.90;2.03;;;27.20;74.50;;;;;;4961301;28;20148;-73
2021/09/06 09:50:22;;;;;;;2.83;2.45;;;27.30;74.40;;;;;;4964637;28;20144;-73
2021/09/06 09:52:52;;;;;;;3.22;2.55;;;27.50;74.00;;;;;;4947747;28;20101;-73
2021/09/06 09:55:22;;;;;;;5.40;2.65;;;27.60;74.00;;;;;;4962057;28;20050;-73
2021/09/06 09:57:51;;;;;;;3.85;2.30;;;27.60;73.40;;;;;;4957956;28;20058;-73
2021/09/06 10:00:20;;;;;;;3.10;2.58;;;27.70;73.40;;;;;;4962261;28;20490;-73
2021/09/06 10:02:56;;;;;;;4.30;2.40;;;27.60;73.10;;;;;;4964630;28;20038;-73
2021/09/06 10:05:26;;;;;;;;;;;27.60;74.10;;;;;;4960954;28;20137;-73
2021/09/06 10:07:55;;;;;;;3.25;2.72;;;27.60;74.20;;;;;;4978519;28;19926;-73
2021/09/06 10:10:25;;;;;;;4.20;2.20;;;27.60;73.40;;;;;;4959897;28;20042;-73
2021/09/06 10:13:03;;;;;;;2.50;2.20;;;27.70;73.30;;;;;;4960153;28;20050;-72
2021/09/06 10:15:36;;;;;;;2.42;2.22;;;27.70;72.50;;;;;;4982544;28;20605;-73
2021/09/06 10:18:19;;;;;;;5.53;2.67;;;27.70;72.60;;;;;;4947139;28;20137;-73
2021/09/06 10:20:50;;;;;;;2.42;2.22;;;27.70;72.90;;;;;;4993675;28;20082;-73
2021/09/06 10:23:22;;;;;;;2.60;2.38;;;27.80;73.50;;;;;;4961909;28;20607;-73
2021/09/06 10:26:06;;;;;;;3.70;2.42;;;28.20;72.20;;;;;;4961227;28;20082;-73
2021/09/06 10:28:35;;;;;;;3.00;2.47;;;28.50;72.40;;;;;;4963478;28;20065;-73
2021/09/06 10:31:04;;;;;;;3.00;2.08;;;28.50;70.90;;;;;;4961160;28;20061;-73
2021/09/06 10:33:37;;;;;;;4.03;2.50;;;28.40;71.50;;;;;;4961287;28;20034;-73
2021/09/06 10:36:08;;;;;;;2.58;2.17;;;28.30;71.20;;;;;;4964287;28;20043;-72
2021/09/06 10:38:39;;;;;;;4.55;2.50;;;28.20;71.50;;;;;;4958702;28;20051;-73
2021/09/06 10:41:13;;;;;;;3.20;2.35;;;28.50;71.20;;;;;;4960706;28;20073;-73
2021/09/06 10:43:49;;;;;;;4.53;2.65;;;28.70;71.40;;;;;;4963032;28;20051;-73
2021/09/06 10:46:21;;;;;;;3.65;2.40;;;28.90;71.60;;;;;;4960354;28;20043;-73
2021/09/06 10:48:53;;;;;;;2.50;2.30;;;29.10;71.00;;;;;;4961955;28;20111;-73
2021/09/06 10:51:26;;;;;;;2.50;1.98;;;29.20;70.60;;;;;;4964733;28;20126;-73
2021/09/06 10:53:55;;;;;;;3.17;2.53;;;29.30;70.70;;;;;;4979475;28;20084;-73
2021/09/06 10:56:26;;;;;;;2.75;2.50;;;29.60;70.00;;;;;;4963309;28;20050;-73
2021/09/06 10:58:55;;;;;;;2.58;2.17;;;29.40;70.70;;;;;;4966209;28;20129;-73
2021/09/06 11:01:23;;;;;;;4.30;2.85;;;29.30;70.70;;;;;;4960919;28;20184;-73
2021/09/06 11:03:54;;;;;;;2.92;2.42;;;29.40;71.10;;;;;;4961782;28;20106;-73
2021/09/06 11:06:25;;;;;;;6.22;2.45;;;29.60;71.20;;;;;;4946870;28;20073;-73
2021/09/06 11:09:01;;;;;;;5.63;2.92;;;29.90;70.40;;;;;;4960096;28;20047;-73
2021/09/06 11:11:31;;;;;;;3.55;2.13;;;30.20;70.10;;;;;;4952227;28;20042;-74
2021/09/06 11:14:02;;;;;;;5.65;2.97;;;30.30;70.30;;;;;;4963745;28;20163;-72
2021/09/06 11:16:36;;;;;;;2.50;2.30;;;30.20;69.70;;;;;;4959190;28;20068;-73
2021/09/06 11:19:15;;;;;;;3.08;2.72;;;30.10;70.20;;;;;;4968417;28;20500;-73
2021/09/06 11:21:45;;;;;;;2.58;2.35;;;30.30;69.80;;;;;;4962283;28;20051;-73
2021/09/06 11:24:19;;;;;;;2.88;2.58;;;30.40;68.90;;;;;;4969862;28;20034;-73
2021/09/06 11:26:49;;;;;;;5.00;2.58;;;30.30;69.10;;;;;;4959049;28;20126;-73
2021/09/06 11:29:17;;;;;;;4.47;2.20;;;30.30;69.00;;;;;;4955819;28;20043;-73
2021/09/06 11:31:47;;;;;;;2.85;2.60;;;30.50;69.00;;;;;;4961140;28;20035;-73
2021/09/06 11:34:24;;;;;;;2.67;2.47;;;30.70;68.60;;;;;;4960453;28;20109;-73
2021/09/06 11:36:55;;;;;;;2.90;2.30;;;30.70;68.40;;;;;;4991540;28;20469;-73
2021/09/06 11:39:29;;;;;;;3.90;2.45;;;30.80;68.60;;;;;;4959619;28;20453;-73
2021/09/06 11:41:58;;;;;;;2.95;2.50;;;30.80;68.50;;;;;;4963406;28;20049;-73
2021/09/06 11:44:26;;;;;;;3.42;2.47;;;30.90;68.80;;;;;;4958752;28;20497;-73
2021/09/06 11:46:54;;;;;;;4.07;2.90;;;31.10;67.30;;;;;;4973297;28;20042;-72
2021/09/06 11:49:24;;;;;;;2.47;2.25;;;31.00;67.40;;;;;;4966461;28;20125;-72
2021/09/06 11:51:52;;;;;;;2.65;2.42;;;30.90;67.90;;;;;;4964405;28;20049;-73
2021/09/06 11:54:22;;;;;;;4.57;2.28;;;31.10;67.90;;;;;;4965888;28;20046;-73
2021/09/06 11:56:58;;;;;;;7.15;2.70;;;31.20;68.30;;;;;;4968118;28;20051;-72
2021/09/06 11:59:31;;;;;;;2.90;2.55;;;31.00;68.20;;;;;;4957915;28;20043;-72
2021/09/06 12:01:59;;;;;;;6.43;2.67;;;31.00;68.30;;;;;;4963246;28;20126;-72
2021/09/06 12:04:37;;;;;;;3.10;2.80;;;31.00;68.40;;;;;;4962216;28;20050;-73
2021/09/06 12:07:15;;;;;;;2.85;2.30;;;30.70;68.60;;;;;;4963853;28;20109;-73
2021/09/06 12:09:44;;;;;;;7.43;3.03;;;30.60;68.60;;;;;;4959421;28;20051;-72
2021/09/06 12:12:17;;;;;;;6.22;2.47;;;30.50;69.10;;;;;;4962705;28;20145;-73
2021/09/06 12:14:47;;;;;;;2.78;2.50;;;30.60;69.20;;;;;;4960607;28;20528;-73
2021/09/06 12:17:15;;;;;;;4.18;2.58;;;30.70;68.30;;;;;;4947643;28;20079;-72
2021/09/06 12:19:46;;;;;;;2.40;1.88;;;30.80;68.60;;;;;;4959611;28;20047;-73
2021/09/06 12:22:17;;;;;;;6.05;2.20;;;30.60;68.30;;;;;;4959693;28;20406;-73
2021/09/06 12:24:46;;;;;;;3.42;2.25;;;30.60;68.10;;;;;;4958565;28;20046;-73
2021/09/06 12:27:16;;;;;;;3.47;2.22;;;30.60;68.70;;;;;;4957881;28;20047;-73
2021/09/06 12:29:55;;;;;;;2.30;2.05;;;30.80;68.00;;;;;;4960698;28;20094;-73
2021/09/06 12:32:24;;;;;;;3.13;2.50;;;31.10;67.60;;;;;;4956634;28;20038;-73
2021/09/06 12:34:54;;;;;;;3.20;2.90;;;31.20;68.00;;;;;;4961061;28;20055;-73
2021/09/06 12:37:23;;;;;;;4.45;2.58;;;30.90;67.40;;;;;;4960272;28;20039;-73
2021/09/06 12:39:51;;;;;;;4.82;2.80;;;30.60;68.60;;;;;;4955127;28;20094;-73
2021/09/06 12:42:19;;;;;;;4.07;2.60;;;30.60;68.90;;;;;;4958340;28;20067;-73
2021/09/06 12:44:47;;;;;;;2.63;2.17;;;31.10;68.20;;;;;;4961839;28;20417;-73
2021/09/06 12:47:15;;;;;;;3.42;2.65;;;31.30;68.10;;;;;;4960561;28;20035;-73
2021/09/06 12:49:43;;;;;;;3.75;2.50;;;31.40;67.80;;;;;;4960164;28;20152;-73
2021/09/06 12:52:13;;;;;;;2.85;2.50;;;31.50;67.30;;;;;;4959369;28;20046;-73
2021/09/06 12:54:43;;;;;;;3.58;2.13;;;31.60;67.30;;;;;;4960980;28;20093;-73
2021/09/06 12:57:13;;;;;;;5.50;2.70;;;31.70;66.60;;;;;;4960457;28;20049;-73
2021/09/06 12:59:41;;;;;;;5.32;2.58;;;31.90;66.70;;;;;;4956619;28;20074;-73
2021/09/06 13:02:09;;;;;;;4.65;2.88;;;31.90;67.50;;;;;;4957106;28;20065;-73
2021/09/06 13:04:38;;;;;;;2.95;2.10;;;32.10;67.20;;;;;;4966183;28;20046;-73
2021/09/06 13:07:06;;;;;;;6.25;2.42;;;32.10;67.40;;;;;;4965013;28;20448;-73
2021/09/06 13:09:36;;;;;;;4.80;2.50;;;32.10;67.10;;;;;;4966064;28;20797;-73
2021/09/06 13:12:04;;;;;;;5.15;2.53;;;32.10;67.30;;;;;;4961671;28;20047;-73